createdAt,value
2022-11-23T00:00:46.871Z,99158.09
2022-11-23T00:03:16.715Z,99161.56
2022-11-23T00:05:44.463Z,99157.00
2022-11-23T00:08:12.316Z,99153.50
2022-11-23T00:10:40.138Z,99162.88
2022-11-23T00:13:07.940Z,99155.78
2022-11-23T00:15:37.159Z,99159.28
2022-11-23T00:18:05.033Z,99163.59
2022-11-23T00:20:32.841Z,99158.41
2022-11-23T00:23:00.768Z,99162.81
2022-11-23T00:25:29.457Z,99171.44
2022-11-23T00:27:57.236Z,99164.44
2022-11-23T00:30:25.026Z,99165.97
2022-11-23T00:32:55.769Z,99160.81
2022-11-23T00:35:24.473Z,99172.94
2022-11-23T00:37:52.367Z,99172.91
2022-11-23T00:40:20.249Z,99173.81
2022-11-23T00:42:48.220Z,99172.84
2022-11-23T00:45:16.173Z,99178.94
2022-11-23T00:47:43.892Z,99173.69
2022-11-23T00:50:13.094Z,99177.09
2022-11-23T00:52:40.869Z,99178.91
2022-11-23T00:55:09.647Z,99178.00
2022-11-23T00:57:37.555Z,99171.75
2022-11-23T01:00:07.058Z,99181.41
2022-11-23T01:02:36.753Z,99181.41
2022-11-23T01:05:05.788Z,99184.91
2022-11-23T01:07:35.123Z,99191.84
2022-11-23T01:10:05.058Z,99190.00
2022-11-23T01:12:34.293Z,99190.88
2022-11-23T01:15:02.247Z,99190.81
2022-11-23T01:17:29.996Z,99197.78
2022-11-23T01:19:58.041Z,99187.28
2022-11-23T01:22:25.743Z,99197.72
2022-11-23T01:24:54.893Z,99193.38
2022-11-23T01:27:22.674Z,99198.56
2022-11-23T01:29:51.741Z,99204.53
2022-11-23T01:32:20.450Z,99206.38
2022-11-23T01:34:48.410Z,99205.50
2022-11-23T01:37:16.197Z,99204.66
2022-11-23T01:39:45.697Z,99206.47
2022-11-23T01:42:17.915Z,99209.06
2022-11-23T01:44:46.072Z,99207.38
2022-11-23T01:47:13.978Z,99210.00
2022-11-23T01:49:44.837Z,99212.69
2022-11-23T01:52:17.008Z,99216.25
2022-11-23T01:54:47.753Z,99211.28
2022-11-23T01:57:20.334Z,99219.16
2022-11-23T01:59:49.582Z,99209.63
2022-11-23T02:02:18.421Z,99209.72
2022-11-23T02:04:48.859Z,99214.09
2022-11-23T02:07:18.698Z,99219.28
2022-11-23T02:09:48.261Z,99211.50
2022-11-23T02:12:17.809Z,99217.59
2022-11-23T02:14:46.736Z,99220.31
2022-11-23T02:17:14.979Z,99215.09
2022-11-23T02:19:55.025Z,99215.91
2022-11-23T02:22:29.264Z,99221.16
2022-11-23T02:24:57.470Z,99225.47
2022-11-23T02:27:28.479Z,99221.16
2022-11-23T02:30:01.279Z,99231.47
2022-11-23T02:32:30.047Z,99222.03
2022-11-23T02:34:57.891Z,99232.41
2022-11-23T02:37:26.337Z,99213.22
2022-11-23T02:39:55.417Z,99228.03
2022-11-23T02:42:24.776Z,99223.72
2022-11-23T02:45:00.728Z,99226.38
2022-11-23T02:47:28.608Z,99238.44
2022-11-23T02:49:56.692Z,99225.59
2022-11-23T02:52:24.614Z,99233.50
2022-11-23T02:54:52.471Z,99233.44
2022-11-23T02:57:20.289Z,99227.34
2022-11-23T02:59:48.140Z,99239.56
2022-11-23T03:02:17.284Z,99230.81
2022-11-23T03:04:45.065Z,99231.84
2022-11-23T03:07:13.160Z,99236.22
2022-11-23T03:09:41.176Z,99227.59
2022-11-23T03:12:10.243Z,99221.63
2022-11-23T03:14:38.695Z,99220.69
2022-11-23T03:17:06.984Z,99225.09
2022-11-23T03:19:43.347Z,99225.03
2022-11-23T03:22:12.564Z,99232.09
2022-11-23T03:24:40.485Z,99225.03
2022-11-23T03:27:11.296Z,99233.84
2022-11-23T03:29:41.647Z,99228.59
2022-11-23T03:32:15.436Z,99216.47
2022-11-23T03:34:48.348Z,99220.00
2022-11-23T03:37:18.548Z,99217.34
2022-11-23T03:39:47.689Z,99222.56
2022-11-23T03:42:24.585Z,99234.69
2022-11-23T03:44:52.465Z,99243.38
2022-11-23T03:47:20.432Z,99241.69
2022-11-23T03:49:49.748Z,99239.97
2022-11-23T03:52:17.819Z,99242.56
2022-11-23T03:54:47.011Z,99235.72
2022-11-23T03:57:15.405Z,99237.38
2022-11-23T03:59:43.336Z,99234.88
2022-11-23T04:02:11.791Z,99237.38
2022-11-23T04:04:48.828Z,99238.31
2022-11-23T04:07:47.350Z,99240.13
2022-11-23T04:10:15.848Z,99242.69
2022-11-23T04:13:12.949Z,99247.03
2022-11-23T04:15:40.823Z,99239.31
2022-11-23T04:18:09.756Z,99242.78
2022-11-23T04:20:41.552Z,99245.38
2022-11-23T04:23:13.242Z,99249.78
2022-11-23T04:25:42.111Z,99238.44
2022-11-23T04:28:11.083Z,99237.47
2022-11-23T04:30:39.542Z,99243.53
2022-11-23T04:33:07.884Z,99240.97
2022-11-23T04:35:38.010Z,99241.78
2022-11-23T04:38:07.213Z,99236.47
2022-11-23T04:40:35.009Z,99239.97
2022-11-23T04:43:04.471Z,99241.63
2022-11-23T04:45:39.499Z,99236.44
2022-11-23T04:48:11.048Z,99250.28
2022-11-23T04:50:40.725Z,99239.00
2022-11-23T04:53:11.749Z,99247.63
2022-11-23T04:55:47.520Z,99240.66
2022-11-23T04:58:16.725Z,99248.47
2022-11-23T05:00:44.726Z,99250.19
2022-11-23T05:03:15.902Z,99244.25
2022-11-23T05:05:44.616Z,99262.50
2022-11-23T05:08:13.788Z,99254.81
2022-11-23T05:10:56.019Z,99259.19
2022-11-23T05:13:25.671Z,99259.28
2022-11-23T05:15:53.538Z,99257.53
2022-11-23T05:18:26.397Z,99266.22
2022-11-23T05:20:54.588Z,99274.13
2022-11-23T05:23:24.277Z,99277.53
2022-11-23T05:25:54.429Z,99274.03
2022-11-23T05:28:40.701Z,99282.72
2022-11-23T05:31:12.225Z,99282.84
2022-11-23T05:33:40.477Z,99281.16
2022-11-23T05:36:13.645Z,99280.28
2022-11-23T05:38:44.653Z,99284.75
2022-11-23T05:41:22.191Z,99276.97
2022-11-23T05:43:54.628Z,99280.50
2022-11-23T05:46:26.936Z,99283.22
2022-11-23T05:48:55.375Z,99280.69
2022-11-23T05:51:24.680Z,99278.94
2022-11-23T05:53:54.647Z,99279.84
2022-11-23T05:56:40.573Z,99279.75
2022-11-23T05:59:17.981Z,99279.81
2022-11-23T06:01:51.271Z,99280.78
2022-11-23T06:04:26.098Z,99279.13
2022-11-23T06:06:57.423Z,99279.91
2022-11-23T06:09:26.773Z,99279.91
2022-11-23T06:11:58.055Z,99281.66
2022-11-23T06:14:26.294Z,99289.47
2022-11-23T06:16:54.771Z,99278.97
2022-11-23T06:19:48.564Z,99291.13
2022-11-23T06:22:16.474Z,99281.63
2022-11-23T06:25:03.101Z,99289.44
2022-11-23T06:27:42.243Z,99289.47
2022-11-23T06:30:17.664Z,99284.34
2022-11-23T06:32:46.088Z,99287.06
2022-11-23T06:35:13.977Z,99287.81
2022-11-23T06:37:43.473Z,99286.97
2022-11-23T06:40:13.544Z,99293.88
2022-11-23T06:42:42.520Z,99298.16
2022-11-23T06:45:24.968Z,99289.63
2022-11-23T06:47:56.097Z,99293.13
2022-11-23T06:50:24.217Z,99298.34
2022-11-23T06:52:56.312Z,99297.50
2022-11-23T06:55:34.196Z,99293.97
2022-11-23T06:58:02.438Z,99303.47
2022-11-23T07:00:30.393Z,99313.84
2022-11-23T07:02:58.430Z,99306.91
2022-11-23T07:05:26.330Z,99301.69
2022-11-23T07:07:55.166Z,99309.50
2022-11-23T07:10:27.382Z,99308.66
2022-11-23T07:13:06.305Z,99305.19
2022-11-23T07:15:37.124Z,99312.88
2022-11-23T07:18:05.875Z,99307.66
2022-11-23T07:20:35.486Z,99314.63
2022-11-23T07:23:08.864Z,99315.50
2022-11-23T07:25:38.959Z,99316.28
2022-11-23T07:28:09.281Z,99324.00
2022-11-23T07:30:37.518Z,99325.63
2022-11-23T07:33:08.381Z,99324.69
2022-11-23T07:35:39.170Z,99333.25
2022-11-23T07:38:07.928Z,99321.91
2022-11-23T07:40:37.107Z,99322.63
2022-11-23T07:43:06.527Z,99328.63
2022-11-23T07:45:36.721Z,99327.84
2022-11-23T07:48:08.536Z,99331.13
2022-11-23T07:50:37.986Z,99335.22
2022-11-23T07:53:07.557Z,99342.06
2022-11-23T07:55:35.932Z,99350.03
2022-11-23T07:58:04.826Z,99349.03
2022-11-23T08:00:32.689Z,99353.63
2022-11-23T08:03:26.534Z,99352.94
2022-11-23T08:05:49.726Z,99357.34
2022-11-23T08:08:17.546Z,99354.88
2022-11-23T08:10:51.407Z,99363.66
2022-11-23T08:13:20.812Z,99354.06
2022-11-23T08:15:54.382Z,99347.25
2022-11-23T08:18:25.168Z,99352.44
2022-11-23T08:20:52.954Z,99356.47
2022-11-23T08:23:21.692Z,99359.78
2022-11-23T08:25:49.663Z,99355.97
2022-11-23T08:28:17.884Z,99354.91
2022-11-23T08:30:45.772Z,99355.94
2022-11-23T08:33:14.787Z,99355.75
2022-11-23T08:35:44.876Z,99343.41
2022-11-23T08:38:12.870Z,99359.78
2022-11-23T08:40:40.671Z,99359.00
2022-11-23T08:43:08.594Z,99360.72
2022-11-23T08:45:36.432Z,99361.91
2022-11-23T08:48:05.298Z,99362.38
2022-11-23T08:50:34.349Z,99370.03
2022-11-23T08:53:03.883Z,99359.38
2022-11-23T08:55:31.646Z,99353.72
2022-11-23T08:57:59.944Z,99358.94
2022-11-23T09:00:28.821Z,99362.50
2022-11-23T09:02:58.824Z,99354.91
2022-11-23T09:05:26.786Z,99355.88
2022-11-23T09:07:55.239Z,99359.50
2022-11-23T09:10:24.506Z,99361.84
2022-11-23T09:12:52.750Z,99356.53
2022-11-23T09:15:21.454Z,99361.09
2022-11-23T09:17:49.228Z,99365.25
2022-11-23T09:20:17.406Z,99368.47
2022-11-23T09:22:45.544Z,99374.13
2022-11-23T09:25:13.646Z,99368.19
2022-11-23T09:27:42.857Z,99377.09
2022-11-23T09:30:12.139Z,99373.63
2022-11-23T09:32:39.968Z,99377.63
2022-11-23T09:35:08.726Z,99369.78
2022-11-23T09:37:36.944Z,99368.78
2022-11-23T09:40:05.348Z,99373.69
2022-11-23T09:42:59.288Z,99377.00
2022-11-23T09:45:35.726Z,99370.88
2022-11-23T09:48:25.824Z,99366.09
2022-11-23T09:51:00.608Z,99378.00
2022-11-23T09:53:34.675Z,99377.94
2022-11-23T09:56:02.979Z,99374.34
2022-11-23T09:58:40.675Z,99374.03
2022-11-23T10:01:13.046Z,99371.19
2022-11-23T10:03:48.284Z,99373.31
2022-11-23T10:06:20.920Z,99372.41
2022-11-23T10:09:13.520Z,99368.28
2022-11-23T10:12:09.667Z,99365.56
2022-11-23T10:14:54.982Z,99364.06
2022-11-23T10:17:30.224Z,99357.44
2022-11-23T10:20:16.703Z,99360.59
2022-11-23T10:22:49.280Z,99366.19
2022-11-23T10:25:18.964Z,99358.50
2022-11-23T10:27:49.609Z,99359.03
2022-11-23T10:30:20.498Z,99362.66
2022-11-23T10:32:53.355Z,99357.84
2022-11-23T10:35:28.246Z,99347.34
2022-11-23T10:38:03.708Z,99354.97
2022-11-23T10:40:31.467Z,99350.81
2022-11-23T10:43:02.802Z,99348.44
2022-11-23T10:45:32.023Z,99337.25
2022-11-23T10:48:01.790Z,99328.75
2022-11-23T10:50:33.481Z,99327.16
2022-11-23T10:53:13.716Z,99323.00
2022-11-23T10:55:49.165Z,99315.31
2022-11-23T10:58:27.586Z,99323.19
2022-11-23T11:01:05.040Z,99311.16
2022-11-23T11:03:35.577Z,99303.69
2022-11-23T11:06:09.535Z,99292.69
2022-11-23T11:08:49.650Z,99292.03
2022-11-23T11:11:25.350Z,99287.69
2022-11-23T11:14:03.827Z,99284.38
2022-11-23T11:16:35.288Z,99285.28
2022-11-23T11:19:23.925Z,99272.22
2022-11-23T11:21:51.734Z,99286.19
2022-11-23T11:24:22.780Z,99288.22
2022-11-23T11:26:53.177Z,99287.31
2022-11-23T11:29:38.369Z,99269.19
2022-11-23T11:32:14.840Z,99270.84
2022-11-23T11:34:46.027Z,99272.25
2022-11-23T11:37:21.612Z,99274.97
2022-11-23T11:39:51.950Z,99266.22
2022-11-23T11:42:22.237Z,99268.09
2022-11-23T11:44:56.219Z,99269.75
2022-11-23T11:47:31.119Z,99264.06
2022-11-23T11:50:02.531Z,99261.72
2022-11-23T11:52:37.211Z,99259.91
2022-11-23T11:55:12.850Z,99265.53
2022-11-23T11:57:43.455Z,99268.97
2022-11-23T12:00:16.457Z,99263.53
2022-11-23T12:02:59.431Z,99265.06
2022-11-23T12:05:35.092Z,99255.84
2022-11-23T12:08:07.681Z,99263.38
2022-11-23T12:10:41.732Z,99257.09
2022-11-23T12:13:14.232Z,99270.66
2022-11-23T12:15:49.891Z,99274.63
2022-11-23T12:18:49.907Z,99266.66
2022-11-23T12:21:29.812Z,99264.91
2022-11-23T12:24:07.997Z,99258.16
2022-11-23T12:26:46.203Z,99260.28
2022-11-23T12:29:42.848Z,99252.31
2022-11-23T12:32:22.351Z,99258.63
2022-11-23T12:35:20.972Z,99247.31
2022-11-23T12:38:03.942Z,99236.31
2022-11-23T12:40:52.395Z,99243.03
2022-11-23T12:43:24.972Z,99237.28
2022-11-23T12:46:14.491Z,99244.22
2022-11-23T12:49:05.302Z,99242.47
2022-11-23T12:51:41.225Z,99234.78
2022-11-23T12:54:26.475Z,99235.00
2022-11-23T12:57:02.293Z,99224.88
2022-11-23T12:59:41.023Z,99221.97
2022-11-23T13:02:25.130Z,99212.16
2022-11-23T13:05:20.289Z,99207.31
2022-11-23T13:08:22.393Z,99195.78
2022-11-23T13:11:00.449Z,99189.38
2022-11-23T13:13:42.581Z,99183.66
2022-11-23T13:16:41.422Z,99177.44
2022-11-23T13:19:41.407Z,99164.22
2022-11-23T13:22:12.583Z,99165.69
2022-11-23T13:25:02.163Z,99156.81
2022-11-23T13:27:43.907Z,99157.88
2022-11-23T13:30:45.600Z,99164.81
2022-11-23T13:33:34.255Z,99171.63
2022-11-23T13:36:10.403Z,99173.66
2022-11-23T13:38:45.721Z,99178.41
2022-11-23T13:41:55.039Z,99179.72
2022-11-23T13:44:27.515Z,99175.31
2022-11-23T13:47:06.625Z,99165.19
2022-11-23T13:49:40.833Z,99171.28
2022-11-23T13:52:28.171Z,99166.19
2022-11-23T13:54:59.778Z,99169.84
2022-11-23T13:57:30.597Z,99163.50
2022-11-23T14:00:30.956Z,99149.59
2022-11-23T14:03:32.387Z,99145.69
2022-11-23T14:06:04.222Z,99159.28
2022-11-23T14:08:35.088Z,99155.31
2022-11-23T14:11:12.901Z,99159.41
2022-11-23T14:13:46.514Z,99151.75
2022-11-23T14:16:24.380Z,99148.41
2022-11-23T14:19:02.654Z,99151.88
2022-11-23T14:21:41.224Z,99154.69
2022-11-23T14:24:45.779Z,99151.56
2022-11-23T14:30:37.244Z,99147.50
2022-11-23T14:33:17.805Z,99149.44
2022-11-23T14:35:53.363Z,99155.53
2022-11-23T14:38:55.078Z,99164.25
2022-11-23T14:41:25.681Z,99157.28
2022-11-23T14:43:55.216Z,99149.63
2022-11-23T14:46:25.474Z,99154.06
2022-11-23T14:49:03.580Z,99148.72
2022-11-23T14:51:32.311Z,99156.59
2022-11-23T14:54:03.667Z,99167.84
2022-11-23T14:56:35.047Z,99162.53
2022-11-23T14:59:05.667Z,99166.88
2022-11-23T15:01:34.750Z,99172.88
2022-11-23T15:04:09.638Z,99176.34
2022-11-23T15:06:45.904Z,99187.38
2022-11-23T15:09:22.412Z,99178.09
2022-11-23T15:11:50.279Z,99198.22
2022-11-23T15:14:20.834Z,99197.44
2022-11-23T15:16:49.329Z,99199.31
2022-11-23T15:19:27.325Z,99203.91
2022-11-23T15:21:55.417Z,99197.94
2022-11-23T15:24:26.792Z,99200.78
2022-11-23T15:26:58.309Z,99199.13
2022-11-23T15:29:31.651Z,99205.56
2022-11-23T15:32:28.638Z,99205.78
2022-11-23T15:34:49.365Z,99191.00
2022-11-23T15:37:18.690Z,99206.75
2022-11-23T15:39:48.704Z,99212.00
2022-11-23T15:42:19.250Z,99213.78
2022-11-23T15:44:51.552Z,99229.38
2022-11-23T15:47:27.277Z,99239.06
2022-11-23T15:50:01.620Z,99238.50
2022-11-23T15:52:32.252Z,99252.53
2022-11-23T15:55:09.266Z,99261.53
2022-11-23T15:57:39.818Z,99264.81
2022-11-23T16:00:09.380Z,99276.34
2022-11-23T16:02:40.193Z,99282.31
2022-11-23T16:05:14.770Z,99285.22
2022-11-23T16:07:54.039Z,99302.53
2022-11-23T16:10:25.913Z,99304.69
2022-11-23T16:12:55.639Z,99311.63
2022-11-23T16:15:42.009Z,99308.56
2022-11-23T16:18:22.864Z,99315.88
2022-11-23T16:20:53.210Z,99311.47
2022-11-23T16:23:23.345Z,99316.81
2022-11-23T16:25:59.361Z,99321.50
2022-11-23T16:28:30.926Z,99328.78
2022-11-23T16:30:59.461Z,99328.63
2022-11-23T16:33:27.400Z,99336.63
2022-11-23T16:35:55.515Z,99342.13
2022-11-23T16:38:23.686Z,99345.53
2022-11-23T16:40:51.740Z,99349.56
2022-11-23T16:43:20.829Z,99355.94
2022-11-23T16:45:51.674Z,99362.94
2022-11-23T16:48:39.973Z,99368.03
2022-11-23T16:51:10.723Z,99375.59
2022-11-23T16:54:11.330Z,99374.06
2022-11-23T16:56:28.226Z,99379.44
2022-11-23T16:58:57.720Z,99383.72
2022-11-23T17:01:27.542Z,99392.75
2022-11-23T17:03:55.419Z,99391.72
2022-11-23T17:06:23.895Z,99399.38
2022-11-23T17:09:00.463Z,99400.03
2022-11-23T17:11:36.126Z,99393.34
2022-11-23T17:14:05.832Z,99395.19
2022-11-23T17:16:34.326Z,99397.84
2022-11-23T17:19:02.357Z,99387.66
2022-11-23T17:21:30.251Z,99400.66
2022-11-23T17:23:58.059Z,99405.59
2022-11-23T17:26:35.442Z,99397.25
2022-11-23T17:29:06.630Z,99409.41
2022-11-23T17:31:34.888Z,99412.88
2022-11-23T17:34:02.772Z,99412.94
2022-11-23T17:36:31.821Z,99410.53
2022-11-23T17:38:59.716Z,99423.59
2022-11-23T17:41:27.552Z,99418.56
2022-11-23T17:43:55.795Z,99422.13
2022-11-23T17:46:25.487Z,99423.78
2022-11-23T17:48:57.236Z,99436.06
2022-11-23T17:51:25.209Z,99437.81
2022-11-23T17:53:53.022Z,99445.41
2022-11-23T17:56:23.157Z,99440.25
2022-11-23T17:58:52.384Z,99451.38
2022-11-23T18:01:22.499Z,99457.22
2022-11-23T18:03:51.918Z,99454.81
2022-11-23T18:06:23.029Z,99458.38
2022-11-23T18:08:52.423Z,99446.41
2022-11-23T18:11:21.307Z,99455.88
2022-11-23T18:13:50.469Z,99457.69
2022-11-23T18:16:19.655Z,99459.31
2022-11-23T18:18:47.742Z,99462.72
2022-11-23T18:21:17.061Z,99466.53
2022-11-23T18:23:45.494Z,99481.34
2022-11-23T18:26:17.583Z,99483.78
2022-11-23T18:28:45.775Z,99481.97
2022-11-23T18:31:13.781Z,99489.75
2022-11-23T18:33:41.791Z,99492.44
2022-11-23T18:36:10.581Z,99490.53
2022-11-23T18:38:40.562Z,99488.03
2022-11-23T18:41:09.236Z,99501.84
2022-11-23T18:43:37.333Z,99507.97
2022-11-23T18:46:07.204Z,99510.56
2022-11-23T18:48:35.344Z,99508.84
2022-11-23T18:51:03.449Z,99513.25
2022-11-23T18:53:31.661Z,99520.13
2022-11-23T18:56:04.939Z,99521.94
2022-11-23T18:58:33.796Z,99529.88
2022-11-23T19:01:12.309Z,99531.41
2022-11-23T19:03:41.849Z,99527.06
2022-11-23T19:06:13.496Z,99534.00
2022-11-23T19:08:41.954Z,99546.84
2022-11-23T19:11:16.206Z,99542.44
2022-11-23T19:13:44.792Z,99550.63
2022-11-23T19:16:15.057Z,99549.13
2022-11-23T19:18:43.435Z,99551.91
2022-11-23T19:21:15.865Z,99560.56
2022-11-23T19:23:43.951Z,99571.81
2022-11-23T19:26:13.100Z,99564.06
2022-11-23T19:28:44.582Z,99573.53
2022-11-23T19:31:13.725Z,99578.94
2022-11-23T19:33:41.748Z,99573.63
2022-11-23T19:36:11.292Z,99583.34
2022-11-23T19:38:39.192Z,99585.16
2022-11-23T19:41:07.576Z,99586.13
2022-11-23T19:43:36.948Z,99578.22
2022-11-23T19:46:07.137Z,99582.75
2022-11-23T19:48:35.895Z,99588.81
2022-11-23T19:51:05.826Z,99589.69
2022-11-23T19:53:35.735Z,99592.34
2022-11-23T19:56:05.206Z,99597.81
2022-11-23T19:58:34.767Z,99596.88
2022-11-23T20:01:05.490Z,99608.91
2022-11-23T20:03:35.825Z,99602.13
2022-11-23T20:06:06.819Z,99606.56
2022-11-23T20:08:34.945Z,99614.44
2022-11-23T20:11:08.345Z,99618.84
2022-11-23T20:13:36.668Z,99625.91
2022-11-23T20:16:08.716Z,99630.22
2022-11-23T20:18:36.600Z,99633.91
2022-11-23T20:21:04.569Z,99646.84
2022-11-23T20:23:32.765Z,99642.56
2022-11-23T20:26:00.620Z,99640.91
2022-11-23T20:28:28.597Z,99640.03
2022-11-23T20:30:56.547Z,99639.25
2022-11-23T20:33:25.695Z,99645.25
2022-11-23T20:35:53.476Z,99654.88
2022-11-23T20:38:21.537Z,99660.22
2022-11-23T20:40:50.458Z,99653.38
2022-11-23T20:43:18.199Z,99661.25
2022-11-23T20:45:46.140Z,99657.81
2022-11-23T20:48:13.927Z,99659.59
2022-11-23T20:50:43.997Z,99664.78
2022-11-23T20:53:11.806Z,99674.28
2022-11-23T20:55:39.573Z,99676.16
2022-11-23T20:58:08.131Z,99672.72
2022-11-23T21:00:35.914Z,99673.66
2022-11-23T21:03:03.694Z,99674.56
2022-11-23T21:05:31.787Z,99677.16
2022-11-23T21:08:01.721Z,99684.06
2022-11-23T21:10:46.898Z,99684.03
2022-11-23T21:13:48.511Z,99686.78
2022-11-23T21:16:17.053Z,99695.47
2022-11-23T21:18:44.801Z,99698.13
2022-11-23T21:21:12.888Z,99700.72
2022-11-23T21:23:42.137Z,99705.09
2022-11-23T21:26:09.823Z,99706.00
2022-11-23T21:28:37.807Z,99712.13
2022-11-23T21:31:08.812Z,99719.03
2022-11-23T21:33:37.556Z,99720.75
2022-11-23T21:36:06.333Z,99725.09
2022-11-23T21:38:36.137Z,99732.06
2022-11-23T21:41:10.755Z,99733.81
2022-11-23T21:43:38.994Z,99733.06
2022-11-23T21:46:09.008Z,99735.69
2022-11-23T21:48:37.680Z,99727.97
2022-11-23T21:51:07.477Z,99731.31
2022-11-23T21:53:35.869Z,99734.78
2022-11-23T21:56:08.066Z,99738.22
2022-11-23T21:58:36.622Z,99742.44
2022-11-23T22:01:05.901Z,99745.81
2022-11-23T22:03:37.764Z,99758.69
2022-11-23T22:06:06.552Z,99756.03
2022-11-23T22:08:34.953Z,99750.88
2022-11-23T22:11:13.417Z,99768.13
2022-11-23T22:13:43.544Z,99767.22
2022-11-23T22:16:17.458Z,99775.91
2022-11-23T22:18:46.166Z,99769.00
2022-11-23T22:21:14.171Z,99774.19
2022-11-23T22:23:42.603Z,99787.06
2022-11-23T22:26:13.940Z,99782.78
2022-11-23T22:28:43.781Z,99788.03
2022-11-23T22:31:13.921Z,99795.81
2022-11-23T22:33:42.921Z,99794.09
2022-11-23T22:36:14.596Z,99802.69
2022-11-23T22:38:43.075Z,99798.47
2022-11-23T22:41:14.775Z,99787.25
2022-11-23T22:43:43.194Z,99801.94
2022-11-23T22:46:12.945Z,99814.88
2022-11-23T22:48:42.620Z,99813.16
2022-11-23T22:51:12.381Z,99814.13
2022-11-23T22:53:44.586Z,99824.47
2022-11-23T22:56:15.819Z,99825.31
2022-11-23T22:58:44.570Z,99821.03
2022-11-23T23:01:14.880Z,99830.56
2022-11-23T23:03:43.531Z,99838.34
2022-11-23T23:06:16.452Z,99831.50
2022-11-23T23:08:45.536Z,99831.50
2022-11-23T23:11:16.267Z,99840.16
2022-11-23T23:13:44.155Z,99838.53
2022-11-23T23:16:14.039Z,99837.72
2022-11-23T23:18:42.788Z,99846.44
2022-11-23T23:21:12.209Z,99851.63
2022-11-23T23:23:41.307Z,99859.41
2022-11-23T23:26:09.815Z,99857.69
2022-11-23T23:28:40.063Z,99860.25
2022-11-23T23:31:10.128Z,99862.91
2022-11-23T23:33:38.265Z,99862.06
2022-11-23T23:36:07.699Z,99863.78
2022-11-23T23:38:36.660Z,99868.06
2022-11-23T23:41:05.520Z,99874.16
2022-11-23T23:43:34.029Z,99866.34
2022-11-23T23:46:05.377Z,99874.19
2022-11-23T23:48:34.950Z,99878.59
2022-11-23T23:51:06.923Z,99888.03
2022-11-23T23:53:34.912Z,99891.47
2022-11-23T23:56:06.008Z,99889.81
2022-11-23T23:58:34.103Z,99887.22
